sensor_id;sensor_type;location;lat;lon;timestamp;pressure;altitude;pressure_sealevel;temperature;humidity
40708;BME280;26392;42.696;23.350;2023-03-21T00:00:53;95133.06;;;12.19;71.35
40708;BME280;26392;42.696;23.350;2023-03-21T00:03:18;95122.41;;;12.23;71.20
40708;BME280;26392;42.696;23.350;2023-03-21T00:05:44;95112.84;;;12.20;71.27
40708;BME280;26392;42.696;23.350;2023-03-21T00:08:14;95120.50;;;12.23;71.61
40708;BME280;26392;42.696;23.350;2023-03-21T00:10:40;95116.69;;;12.24;71.99
40708;BME280;26392;42.696;23.350;2023-03-21T00:13:05;95128.38;;;12.09;73.11
40708;BME280;26392;42.696;23.350;2023-03-21T00:15:31;95131.09;;;11.99;74.09
40708;BME280;26392;42.696;23.350;2023-03-21T00:17:56;95127.53;;;11.94;74.52
40708;BME280;26392;42.696;23.350;2023-03-21T00:20:32;95125.09;;;12.02;74.09
40708;BME280;26392;42.696;23.350;2023-03-21T00:23:02;95122.06;;;12.04;74.02
40708;BME280;26392;42.696;23.350;2023-03-21T00:25:28;95117.16;;;12.01;74.17
40708;BME280;26392;42.696;23.350;2023-03-21T00:27:54;95121.25;;;12.03;73.98
40708;BME280;26392;42.696;23.350;2023-03-21T00:30:19;95125.38;;;12.06;73.45
40708;BME280;26392;42.696;23.350;2023-03-21T00:32:45;95126.47;;;12.05;73.79
40708;BME280;26392;42.696;23.350;2023-03-21T00:35:11;95120.19;;;12.09;73.76
40708;BME280;26392;42.696;23.350;2023-03-21T00:37:37;95128.38;;;12.04;74.20
40708;BME280;26392;42.696;23.350;2023-03-21T00:40:03;95136.56;;;11.99;74.77
40708;BME280;26392;42.696;23.350;2023-03-21T00:42:35;95133.00;;;11.99;74.72
40708;BME280;26392;42.696;23.350;2023-03-21T00:45:02;95135.44;;;11.95;74.75
40708;BME280;26392;42.696;23.350;2023-03-21T00:47:27;95128.63;;;11.98;74.56
40708;BME280;26392;42.696;23.350;2023-03-21T00:49:53;95122.31;;;11.92;74.14
40708;BME280;26392;42.696;23.350;2023-03-21T00:52:18;95126.41;;;11.90;74.16
40708;BME280;26392;42.696;23.350;2023-03-21T00:54:44;95126.34;;;11.74;75.05
40708;BME280;26392;42.696;23.350;2023-03-21T00:57:10;95119.22;;;11.68;75.28
40708;BME280;26392;42.696;23.350;2023-03-21T00:59:35;95115.88;;;11.56;76.33
40708;BME280;26392;42.696;23.350;2023-03-21T01:02:00;95130.03;;;11.48;77.29
40708;BME280;26392;42.696;23.350;2023-03-21T01:04:27;95117.50;;;11.52;76.97
40708;BME280;26392;42.696;23.350;2023-03-21T01:06:53;95113.13;;;11.46;77.37
40708;BME280;26392;42.696;23.350;2023-03-21T01:09:22;95115.25;;;11.38;77.98
40708;BME280;26392;42.696;23.350;2023-03-21T01:11:49;95111.94;;;11.31;78.88
40708;BME280;26392;42.696;23.350;2023-03-21T01:14:16;95113.56;;;11.27;79.16
40708;BME280;26392;42.696;23.350;2023-03-21T01:16:42;95112.69;;;11.22;79.29
40708;BME280;26392;42.696;23.350;2023-03-21T01:19:10;95106.16;;;11.17;79.49
40708;BME280;26392;42.696;23.350;2023-03-21T01:21:36;95110.47;;;11.13;79.89
40708;BME280;26392;42.696;23.350;2023-03-21T01:24:02;95107.47;;;11.10;80.38
40708;BME280;26392;42.696;23.350;2023-03-21T01:26:27;95100.88;;;11.06;80.75
40708;BME280;26392;42.696;23.350;2023-03-21T01:28:53;95106.31;;;11.06;81.30
40708;BME280;26392;42.696;23.350;2023-03-21T01:31:19;95098.19;;;11.11;81.19
40708;BME280;26392;42.696;23.350;2023-03-21T01:33:44;95114.56;;;11.16;81.11
40708;BME280;26392;42.696;23.350;2023-03-21T01:36:15;95115.16;;;11.18;81.23
40708;BME280;26392;42.696;23.350;2023-03-21T01:38:41;95120.81;;;11.11;81.97
40708;BME280;26392;42.696;23.350;2023-03-21T01:41:17;95114.28;;;11.12;82.49
40708;BME280;26392;42.696;23.350;2023-03-21T01:43:44;95108.84;;;11.12;82.69
40708;BME280;26392;42.696;23.350;2023-03-21T01:48:37;95100.81;;;10.95;84.11
40708;BME280;26392;42.696;23.350;2023-03-21T01:51:05;95102.47;;;10.96;84.13
40708;BME280;26392;42.696;23.350;2023-03-21T01:53:32;95105.22;;;11.02;83.83
40708;BME280;26392;42.696;23.350;2023-03-21T01:56:02;95100.53;;;10.97;84.15
40708;BME280;26392;42.696;23.350;2023-03-21T01:58:31;95110.06;;;10.94;84.42
40708;BME280;26392;42.696;23.350;2023-03-21T02:01:00;95099.41;;;10.88;84.69
40708;BME280;26392;42.696;23.350;2023-03-21T02:03:27;95096.94;;;10.86;84.47
40708;BME280;26392;42.696;23.350;2023-03-21T02:06:01;95100.75;;;10.85;84.34
40708;BME280;26392;42.696;23.350;2023-03-21T02:08:31;95107.53;;;10.83;84.39
40708;BME280;26392;42.696;23.350;2023-03-21T02:10:57;95101.75;;;10.74;84.55
40708;BME280;26392;42.696;23.350;2023-03-21T02:13:23;95094.63;;;10.68;85.42
40708;BME280;26392;42.696;23.350;2023-03-21T02:15:58;95095.41;;;10.63;85.75
40708;BME280;26392;42.696;23.350;2023-03-21T02:37:38;95100.16;;;10.19;89.13
40708;BME280;26392;42.696;23.350;2023-03-21T02:46:05;95086.56;;;10.19;91.08
40708;BME280;26392;42.696;23.350;2023-03-21T02:48:36;95096.91;;;10.22;91.61
40708;BME280;26392;42.696;23.350;2023-03-21T02:51:05;95074.75;;;10.08;91.57
40708;BME280;26392;42.696;23.350;2023-03-21T02:53:36;95086.50;;;10.14;91.95
40708;BME280;26392;42.696;23.350;2023-03-21T02:56:02;95087.59;;;10.13;92.14
40708;BME280;26392;42.696;23.350;2023-03-21T02:58:29;95094.06;;;10.06;92.69
40708;BME280;26392;42.696;23.350;2023-03-21T03:00:56;95093.19;;;10.01;92.62
40708;BME280;26392;42.696;23.350;2023-03-21T03:03:22;95081.13;;;9.92;93.84
40708;BME280;26392;42.696;23.350;2023-03-21T03:05:51;95089.53;;;9.90;94.07
40708;BME280;26392;42.696;23.350;2023-03-21T03:08:36;95088.72;;;9.90;94.17
40708;BME280;26392;42.696;23.350;2023-03-21T03:13:56;95084.34;;;9.89;94.39
40708;BME280;26392;42.696;23.350;2023-03-21T03:19:07;95099.78;;;9.83;95.55
40708;BME280;26392;42.696;23.350;2023-03-21T03:21:50;95087.72;;;9.74;96.10
40708;BME280;26392;42.696;23.350;2023-03-21T03:27:00;95084.84;;;9.58;97.44
40708;BME280;26392;42.696;23.350;2023-03-21T03:29:29;95097.66;;;9.63;97.55
40708;BME280;26392;42.696;23.350;2023-03-21T03:32:07;95091.34;;;9.57;97.82
40708;BME280;26392;42.696;23.350;2023-03-21T03:34:39;95092.19;;;9.58;97.55
40708;BME280;26392;42.696;23.350;2023-03-21T03:37:10;95094.84;;;9.53;98.00
40708;BME280;26392;42.696;23.350;2023-03-21T03:39:44;95090.16;;;9.48;99.06
40708;BME280;26392;42.696;23.350;2023-03-21T03:42:18;95094.19;;;9.46;99.65
40708;BME280;26392;42.696;23.350;2023-03-21T03:44:46;95094.13;;;9.40;100.00
40708;BME280;26392;42.696;23.350;2023-03-21T03:49:59;95089.91;;;9.28;100.00
40708;BME280;26392;42.696;23.350;2023-03-21T03:52:30;95096.25;;;9.33;100.00
40708;BME280;26392;42.696;23.350;2023-03-21T03:54:57;95087.88;;;9.18;100.00
40708;BME280;26392;42.696;23.350;2023-03-21T03:57:25;95094.47;;;9.22;100.00
40708;BME280;26392;42.696;23.350;2023-03-21T03:59:51;95088.06;;;9.11;100.00
40708;BME280;26392;42.696;23.350;2023-03-21T04:02:17;95093.22;;;9.13;100.00
40708;BME280;26392;42.696;23.350;2023-03-21T04:04:44;95102.75;;;9.10;100.00
40708;BME280;26392;42.696;23.350;2023-03-21T04:07:11;95096.66;;;9.03;100.00
40708;BME280;26392;42.696;23.350;2023-03-21T04:09:37;95096.84;;;8.96;100.00
40708;BME280;26392;42.696;23.350;2023-03-21T04:12:02;95098.28;;;9.04;100.00
40708;BME280;26392;42.696;23.350;2023-03-21T04:14:28;95100.69;;;9.01;100.00
40708;BME280;26392;42.696;23.350;2023-03-21T04:16:53;95092.72;;;8.94;100.00
40708;BME280;26392;42.696;23.350;2023-03-21T04:19:19;95092.22;;;8.97;100.00
40708;BME280;26392;42.696;23.350;2023-03-21T04:21:45;95091.94;;;8.99;100.00
40708;BME280;26392;42.696;23.350;2023-03-21T04:24:11;95089.66;;;8.90;100.00
40708;BME280;26392;42.696;23.350;2023-03-21T04:26:38;95089.03;;;8.83;100.00
40708;BME280;26392;42.696;23.350;2023-03-21T04:29:03;95082.19;;;8.81;100.00
40708;BME280;26392;42.696;23.350;2023-03-21T04:31:31;95085.63;;;8.93;100.00
40708;BME280;26392;42.696;23.350;2023-03-21T04:33:59;95083.41;;;8.90;100.00
40708;BME280;26392;42.696;23.350;2023-03-21T04:36:26;95077.16;;;8.89;100.00
40708;BME280;26392;42.696;23.350;2023-03-21T04:38:55;95089.03;;;8.83;100.00
40708;BME280;26392;42.696;23.350;2023-03-21T04:41:25;95085.00;;;8.86;100.00
40708;BME280;26392;42.696;23.350;2023-03-21T04:43:51;95098.31;;;8.87;100.00
40708;BME280;26392;42.696;23.350;2023-03-21T04:46:16;95090.50;;;8.91;100.00
40708;BME280;26392;42.696;23.350;2023-03-21T04:48:42;95088.41;;;8.98;100.00
40708;BME280;26392;42.696;23.350;2023-03-21T04:51:07;95090.72;;;9.06;100.00
40708;BME280;26392;42.696;23.350;2023-03-21T04:53:33;95088.56;;;9.08;100.00
40708;BME280;26392;42.696;23.350;2023-03-21T04:55:58;95097.41;;;9.21;100.00
40708;BME280;26392;42.696;23.350;2023-03-21T04:58:24;95092.63;;;9.28;100.00
40708;BME280;26392;42.696;23.350;2023-03-21T05:00:50;95095.22;;;9.39;100.00
40708;BME280;26392;42.696;23.350;2023-03-21T05:03:17;95108.38;;;9.48;100.00
40708;BME280;26392;42.696;23.350;2023-03-21T05:05:46;95107.06;;;9.50;100.00
40708;BME280;26392;42.696;23.350;2023-03-21T05:08:12;95097.81;;;9.51;100.00
40708;BME280;26392;42.696;23.350;2023-03-21T05:10:38;95104.50;;;9.66;100.00
40708;BME280;26392;42.696;23.350;2023-03-21T05:13:04;95108.44;;;9.75;99.64
40708;BME280;26392;42.696;23.350;2023-03-21T05:15:29;95098.91;;;9.77;99.17
40708;BME280;26392;42.696;23.350;2023-03-21T05:17:55;95106.69;;;9.91;98.29
40708;BME280;26392;42.696;23.350;2023-03-21T05:20:23;95100.78;;;9.99;97.51
40708;BME280;26392;42.696;23.350;2023-03-21T05:22:49;95092.44;;;10.05;95.77
40708;BME280;26392;42.696;23.350;2023-03-21T05:25:16;95098.47;;;10.13;95.41
40708;BME280;26392;42.696;23.350;2023-03-21T05:27:43;95096.91;;;10.17;94.97
40708;BME280;26392;42.696;23.350;2023-03-21T05:30:15;95106.00;;;10.27;93.75
40708;BME280;26392;42.696;23.350;2023-03-21T05:32:41;95104.47;;;10.37;92.26
40708;BME280;26392;42.696;23.350;2023-03-21T05:35:07;95118.44;;;10.45;90.88
40708;BME280;26392;42.696;23.350;2023-03-21T05:37:33;95107.66;;;10.61;90.23
40708;BME280;26392;42.696;23.350;2023-03-21T05:39:58;95102.00;;;10.67;89.03
40708;BME280;26392;42.696;23.350;2023-03-21T05:42:24;95108.31;;;10.78;88.84
40708;BME280;26392;42.696;23.350;2023-03-21T05:44:50;95106.44;;;10.84;87.70
40708;BME280;26392;42.696;23.350;2023-03-21T05:47:16;95104.63;;;10.94;86.17
40708;BME280;26392;42.696;23.350;2023-03-21T05:49:42;95107.75;;;11.13;84.62
40708;BME280;26392;42.696;23.350;2023-03-21T05:52:08;95099.09;;;11.27;82.55
40708;BME280;26392;42.696;23.350;2023-03-21T05:54:34;95090.72;;;11.43;82.72
40708;BME280;26392;42.696;23.350;2023-03-21T05:56:59;95091.91;;;11.63;79.43
40708;BME280;26392;42.696;23.350;2023-03-21T05:59:25;95087.53;;;11.57;79.38
40708;BME280;26392;42.696;23.350;2023-03-21T06:01:50;95082.06;;;11.62;79.24
40708;BME280;26392;42.696;23.350;2023-03-21T06:04:16;95084.03;;;11.77;79.79
40708;BME280;26392;42.696;23.350;2023-03-21T06:06:41;95091.75;;;11.95;79.08
40708;BME280;26392;42.696;23.350;2023-03-21T06:09:07;95083.09;;;12.19;75.47
40708;BME280;26392;42.696;23.350;2023-03-21T06:11:34;95082.84;;;12.41;74.01
40708;BME280;26392;42.696;23.350;2023-03-21T06:14:01;95083.63;;;12.51;72.51
40708;BME280;26392;42.696;23.350;2023-03-21T06:16:26;95080.09;;;12.66;70.06
40708;BME280;26392;42.696;23.350;2023-03-21T06:18:53;95079.00;;;12.77;68.58
40708;BME280;26392;42.696;23.350;2023-03-21T06:21:19;95073.50;;;12.88;67.52
40708;BME280;26392;42.696;23.350;2023-03-21T06:23:46;95078.16;;;12.92;67.28
40708;BME280;26392;42.696;23.350;2023-03-21T06:26:12;95086.06;;;13.09;64.56
40708;BME280;26392;42.696;23.350;2023-03-21T06:28:37;95075.94;;;13.15;64.04
40708;BME280;26392;42.696;23.350;2023-03-21T06:31:03;95067.47;;;13.11;63.77
40708;BME280;26392;42.696;23.350;2023-03-21T06:33:29;95071.00;;;13.22;63.94
40708;BME280;26392;42.696;23.350;2023-03-21T06:35:56;95080.34;;;13.11;64.05
40708;BME280;26392;42.696;23.350;2023-03-21T06:38:23;95074.06;;;12.90;64.37
40708;BME280;26392;42.696;23.350;2023-03-21T06:40:49;95074.09;;;12.74;66.20
40708;BME280;26392;42.696;23.350;2023-03-21T06:43:15;95073.53;;;12.67;67.95
40708;BME280;26392;42.696;23.350;2023-03-21T06:45:41;95083.06;;;12.90;68.18
40708;BME280;26392;42.696;23.350;2023-03-21T06:48:07;95088.28;;;12.76;69.12
40708;BME280;26392;42.696;23.350;2023-03-21T06:50:32;95086.66;;;12.70;69.76
40708;BME280;26392;42.696;23.350;2023-03-21T06:52:58;95088.56;;;12.44;73.23
40708;BME280;26392;42.696;23.350;2023-03-21T06:55:25;95089.66;;;12.48;74.28
40708;BME280;26392;42.696;23.350;2023-03-21T06:57:52;95089.94;;;12.57;79.13
40708;BME280;26392;42.696;23.350;2023-03-21T07:00:18;95100.59;;;12.74;76.70
40708;BME280;26392;42.696;23.350;2023-03-21T07:02:44;95101.94;;;12.76;72.56
40708;BME280;26392;42.696;23.350;2023-03-21T07:05:10;95094.03;;;12.75;70.37
40708;BME280;26392;42.696;23.350;2023-03-21T07:07:36;95103.88;;;12.71;71.40
40708;BME280;26392;42.696;23.350;2023-03-21T07:10:03;95093.50;;;12.78;72.18
40708;BME280;26392;42.696;23.350;2023-03-21T07:12:28;95100.88;;;12.83;71.94
40708;BME280;26392;42.696;23.350;2023-03-21T07:14:54;95105.78;;;13.01;73.52
40708;BME280;26392;42.696;23.350;2023-03-21T07:17:19;95100.81;;;13.18;72.52
40708;BME280;26392;42.696;23.350;2023-03-21T07:19:45;95097.25;;;13.23;71.92
40708;BME280;26392;42.696;23.350;2023-03-21T07:22:10;95099.16;;;13.33;71.08
40708;BME280;26392;42.696;23.350;2023-03-21T07:24:35;95100.53;;;13.40;69.51
40708;BME280;26392;42.696;23.350;2023-03-21T07:27:01;95103.56;;;13.39;68.85
40708;BME280;26392;42.696;23.350;2023-03-21T07:29:26;95102.38;;;13.55;65.79
40708;BME280;26392;42.696;23.350;2023-03-21T07:31:52;95100.97;;;13.68;63.90
40708;BME280;26392;42.696;23.350;2023-03-21T07:34:17;95091.59;;;13.84;63.94
40708;BME280;26392;42.696;23.350;2023-03-21T07:36:43;95090.25;;;13.77;61.28
40708;BME280;26392;42.696;23.350;2023-03-21T07:39:08;95086.59;;;13.97;61.55
40708;BME280;26392;42.696;23.350;2023-03-21T07:41:34;95090.28;;;14.26;61.05
40708;BME280;26392;42.696;23.350;2023-03-21T07:43:59;95078.41;;;14.36;59.88
40708;BME280;26392;42.696;23.350;2023-03-21T07:46:25;95102.72;;;14.53;59.53
40708;BME280;26392;42.696;23.350;2023-03-21T07:48:50;95095.31;;;14.53;58.43
40708;BME280;26392;42.696;23.350;2023-03-21T07:51:15;95092.97;;;14.76;56.37
40708;BME280;26392;42.696;23.350;2023-03-21T07:53:41;95097.50;;;14.91;56.11
40708;BME280;26392;42.696;23.350;2023-03-21T07:56:08;95097.09;;;15.08;55.83
40708;BME280;26392;42.696;23.350;2023-03-21T07:58:33;95098.44;;;15.34;54.31
40708;BME280;26392;42.696;23.350;2023-03-21T08:01:00;95098.94;;;15.41;53.27
40708;BME280;26392;42.696;23.350;2023-03-21T08:03:26;95102.97;;;15.49;52.50
40708;BME280;26392;42.696;23.350;2023-03-21T08:05:53;95107.91;;;15.76;50.93
40708;BME280;26392;42.696;23.350;2023-03-21T08:08:19;95093.84;;;15.83;50.54
40708;BME280;26392;42.696;23.350;2023-03-21T08:10:45;95102.03;;;15.88;50.22
40708;BME280;26392;42.696;23.350;2023-03-21T08:13:11;95103.13;;;15.87;50.33
40708;BME280;26392;42.696;23.350;2023-03-21T08:15:37;95093.47;;;15.89;50.10
40708;BME280;26392;42.696;23.350;2023-03-21T08:18:06;95092.00;;;15.97;49.55
40708;BME280;26392;42.696;23.350;2023-03-21T08:20:32;95094.38;;;16.04;49.32
40708;BME280;26392;42.696;23.350;2023-03-21T08:22:58;95089.03;;;16.13;49.05
40708;BME280;26392;42.696;23.350;2023-03-21T08:25:24;95091.66;;;16.23;48.85
40708;BME280;26392;42.696;23.350;2023-03-21T08:27:50;95091.50;;;16.14;48.86
40708;BME280;26392;42.696;23.350;2023-03-21T08:30:21;95076.81;;;15.81;49.03
40708;BME280;26392;42.696;23.350;2023-03-21T08:32:47;95079.06;;;15.98;49.15
40708;BME280;26392;42.696;23.350;2023-03-21T08:35:14;95078.56;;;16.15;49.12
40708;BME280;26392;42.696;23.350;2023-03-21T08:37:41;95085.47;;;16.12;48.80
40708;BME280;26392;42.696;23.350;2023-03-21T08:40:10;95079.16;;;16.11;48.79
40708;BME280;26392;42.696;23.350;2023-03-21T08:42:38;95090.78;;;16.27;48.48
40708;BME280;26392;42.696;23.350;2023-03-21T08:45:08;95075.03;;;16.33;48.56
40708;BME280;26392;42.696;23.350;2023-03-21T08:47:34;95075.09;;;16.47;48.08
40708;BME280;26392;42.696;23.350;2023-03-21T08:49:59;95082.91;;;16.59;47.73
40708;BME280;26392;42.696;23.350;2023-03-21T08:52:25;95075.84;;;16.52;47.30
40708;BME280;26392;42.696;23.350;2023-03-21T08:54:52;95073.50;;;16.60;47.53
40708;BME280;26392;42.696;23.350;2023-03-21T08:57:18;95075.31;;;16.69;46.88
40708;BME280;26392;42.696;23.350;2023-03-21T08:59:43;95074.19;;;16.70;46.69
40708;BME280;26392;42.696;23.350;2023-03-21T09:02:12;95065.94;;;16.51;46.85
40708;BME280;26392;42.696;23.350;2023-03-21T09:04:38;95072.50;;;16.55;47.07
40708;BME280;26392;42.696;23.350;2023-03-21T09:07:04;95072.31;;;16.66;46.90
40708;BME280;26392;42.696;23.350;2023-03-21T09:09:30;95066.81;;;16.66;47.09
40708;BME280;26392;42.696;23.350;2023-03-21T09:11:56;95056.06;;;16.69;46.59
40708;BME280;26392;42.696;23.350;2023-03-21T09:14:22;95064.09;;;16.98;45.93
40708;BME280;26392;42.696;23.350;2023-03-21T09:16:47;95065.34;;;17.06;45.43
40708;BME280;26392;42.696;23.350;2023-03-21T09:19:12;95057.63;;;17.22;45.33
40708;BME280;26392;42.696;23.350;2023-03-21T09:21:38;95050.59;;;17.16;45.16
40708;BME280;26392;42.696;23.350;2023-03-21T09:24:04;95047.31;;;17.14;45.31
40708;BME280;26392;42.696;23.350;2023-03-21T09:26:31;95042.34;;;17.30;45.40
40708;BME280;26392;42.696;23.350;2023-03-21T09:28:57;95048.78;;;17.53;44.57
40708;BME280;26392;42.696;23.350;2023-03-21T09:31:23;95039.41;;;17.54;43.90
40708;BME280;26392;42.696;23.350;2023-03-21T09:33:51;95032.47;;;17.56;43.72
40708;BME280;26392;42.696;23.350;2023-03-21T09:36:17;95028.59;;;17.57;43.75
40708;BME280;26392;42.696;23.350;2023-03-21T09:38:46;95031.44;;;17.38;43.83
40708;BME280;26392;42.696;23.350;2023-03-21T09:47:25;95024.31;;;17.65;42.65
40708;BME280;26392;42.696;23.350;2023-03-21T09:50:14;95011.16;;;17.20;43.33
40708;BME280;26392;42.696;23.350;2023-03-21T09:55:27;95012.78;;;17.49;43.65
40708;BME280;26392;42.696;23.350;2023-03-21T10:00:43;95021.03;;;17.63;44.75
40708;BME280;26392;42.696;23.350;2023-03-21T10:03:23;95013.50;;;17.68;44.78
40708;BME280;26392;42.696;23.350;2023-03-21T10:05:53;95013.88;;;17.89;43.71
40708;BME280;26392;42.696;23.350;2023-03-21T10:08:34;95013.19;;;17.70;43.84
40708;BME280;26392;42.696;23.350;2023-03-21T10:11:40;94998.88;;;18.09;43.27
40708;BME280;26392;42.696;23.350;2023-03-21T10:14:20;94994.50;;;18.31;43.09
40708;BME280;26392;42.696;23.350;2023-03-21T10:17:06;95001.84;;;18.36;42.77
40708;BME280;26392;42.696;23.350;2023-03-21T10:19:35;94995.94;;;18.51;42.26
40708;BME280;26392;42.696;23.350;2023-03-21T10:22:00;94989.22;;;18.80;42.30
40708;BME280;26392;42.696;23.350;2023-03-21T10:24:27;94988.34;;;19.01;41.90
40708;BME280;26392;42.696;23.350;2023-03-21T10:26:54;94981.53;;;18.99;42.21
40708;BME280;26392;42.696;23.350;2023-03-21T10:29:25;94982.06;;;19.10;41.79
40708;BME280;26392;42.696;23.350;2023-03-21T10:31:52;94984.47;;;19.34;41.17
40708;BME280;26392;42.696;23.350;2023-03-21T10:34:35;94986.97;;;19.53;40.70
40708;BME280;26392;42.696;23.350;2023-03-21T10:37:02;94987.22;;;19.74;40.51
40708;BME280;26392;42.696;23.350;2023-03-21T10:39:40;94983.13;;;19.71;39.88
40708;BME280;26392;42.696;23.350;2023-03-21T10:44:46;94999.75;;;19.80;39.83
40708;BME280;26392;42.696;23.350;2023-03-21T10:47:22;94993.91;;;19.90;39.28
40708;BME280;26392;42.696;23.350;2023-03-21T10:49:49;94985.75;;;19.76;39.36
40708;BME280;26392;42.696;23.350;2023-03-21T10:52:18;94988.91;;;20.01;38.63
40708;BME280;26392;42.696;23.350;2023-03-21T10:54:44;94988.91;;;20.09;37.71
40708;BME280;26392;42.696;23.350;2023-03-21T10:57:16;94984.03;;;20.06;37.76
40708;BME280;26392;42.696;23.350;2023-03-21T10:59:50;94970.38;;;20.10;37.51
40708;BME280;26392;42.696;23.350;2023-03-21T11:02:33;94971.50;;;19.83;38.28
40708;BME280;26392;42.696;23.350;2023-03-21T11:05:05;94978.78;;;19.79;38.29
40708;BME280;26392;42.696;23.350;2023-03-21T11:07:32;94980.59;;;19.92;37.35
40708;BME280;26392;42.696;23.350;2023-03-21T11:10:00;94957.38;;;19.44;37.84
40708;BME280;26392;42.696;23.350;2023-03-21T11:12:38;94970.88;;;19.55;37.37
40708;BME280;26392;42.696;23.350;2023-03-21T11:15:29;94956.50;;;18.95;37.85
40708;BME280;26392;42.696;23.350;2023-03-21T11:18:00;94949.66;;;19.24;37.74
40708;BME280;26392;42.696;23.350;2023-03-21T11:20:43;94944.50;;;19.40;37.70
40708;BME280;26392;42.696;23.350;2023-03-21T11:23:12;94958.75;;;19.73;36.85
40708;BME280;26392;42.696;23.350;2023-03-21T11:25:40;94943.84;;;19.43;37.38
40708;BME280;26392;42.696;23.350;2023-03-21T11:28:18;94954.53;;;19.67;37.27
40708;BME280;26392;42.696;23.350;2023-03-21T11:33:17;94938.09;;;19.13;37.78
40708;BME280;26392;42.696;23.350;2023-03-21T11:35:43;94932.22;;;19.15;38.13
40708;BME280;26392;42.696;23.350;2023-03-21T11:38:29;94924.00;;;19.32;37.64
40708;BME280;26392;42.696;23.350;2023-03-21T11:41:00;94921.00;;;19.11;37.77
40708;BME280;26392;42.696;23.350;2023-03-21T11:43:31;94922.06;;;18.93;38.38
40708;BME280;26392;42.696;23.350;2023-03-21T11:46:04;94913.81;;;19.01;38.48
40708;BME280;26392;42.696;23.350;2023-03-21T11:48:39;94923.19;;;18.92;38.30
40708;BME280;26392;42.696;23.350;2023-03-21T11:54:09;94912.66;;;18.18;39.43
40708;BME280;26392;42.696;23.350;2023-03-21T11:56:43;94907.44;;;18.39;39.23
40708;BME280;26392;42.696;23.350;2023-03-21T11:59:28;94905.84;;;18.38;39.23
40708;BME280;26392;42.696;23.350;2023-03-21T12:09:45;94895.56;;;18.83;38.08
40708;BME280;26392;42.696;23.350;2023-03-21T12:12:30;94892.22;;;19.04;37.52
40708;BME280;26392;42.696;23.350;2023-03-21T12:15:18;94886.34;;;18.88;37.69
40708;BME280;26392;42.696;23.350;2023-03-21T12:25:50;94873.44;;;19.80;36.58
40708;BME280;26392;42.696;23.350;2023-03-21T12:39:47;94861.03;;;20.21;35.79
40708;BME280;26392;42.696;23.350;2023-03-21T12:47:35;94854.34;;;20.48;35.25
40708;BME280;26392;42.696;23.350;2023-03-21T12:50:13;94847.88;;;20.18;35.25
40708;BME280;26392;42.696;23.350;2023-03-21T12:52:43;94850.13;;;20.33;35.15
40708;BME280;26392;42.696;23.350;2023-03-21T12:55:27;94838.78;;;20.18;35.00
40708;BME280;26392;42.696;23.350;2023-03-21T12:58:03;94835.19;;;20.17;35.20
40708;BME280;26392;42.696;23.350;2023-03-21T13:00:44;94827.38;;;20.28;35.19
40708;BME280;26392;42.696;23.350;2023-03-21T13:03:15;94838.28;;;20.07;35.31
40708;BME280;26392;42.696;23.350;2023-03-21T13:06:05;94834.81;;;20.36;35.61
40708;BME280;26392;42.696;23.350;2023-03-21T13:08:37;94828.13;;;20.54;35.23
40708;BME280;26392;42.696;23.350;2023-03-21T13:11:05;94828.28;;;20.49;35.19
40708;BME280;26392;42.696;23.350;2023-03-21T13:21:50;94802.03;;;19.91;36.34
40708;BME280;26392;42.696;23.350;2023-03-21T13:32:27;94809.75;;;19.02;38.43
40708;BME280;26392;42.696;23.350;2023-03-21T13:34:59;94801.47;;;19.11;38.50
40708;BME280;26392;42.696;23.350;2023-03-21T13:37:30;94803.31;;;19.24;38.50
40708;BME280;26392;42.696;23.350;2023-03-21T13:40:03;94812.59;;;18.80;39.27
40708;BME280;26392;42.696;23.350;2023-03-21T13:42:42;94800.94;;;18.91;39.15
40708;BME280;26392;42.696;23.350;2023-03-21T13:45:23;94791.53;;;19.01;38.78
40708;BME280;26392;42.696;23.350;2023-03-21T13:47:53;94792.22;;;19.15;38.89
40708;BME280;26392;42.696;23.350;2023-03-21T13:50:28;94789.78;;;19.14;38.87
40708;BME280;26392;42.696;23.350;2023-03-21T13:55:46;94790.44;;;19.19;39.60
40708;BME280;26392;42.696;23.350;2023-03-21T13:58:37;94786.69;;;19.15;39.62
40708;BME280;26392;42.696;23.350;2023-03-21T14:03:45;94790.03;;;18.77;41.34
40708;BME280;26392;42.696;23.350;2023-03-21T14:06:11;94795.56;;;18.46;40.97
40708;BME280;26392;42.696;23.350;2023-03-21T14:08:39;94787.59;;;18.45;41.62
40708;BME280;26392;42.696;23.350;2023-03-21T14:11:10;94789.41;;;18.49;41.64
40708;BME280;26392;42.696;23.350;2023-03-21T14:13:41;94787.31;;;18.55;41.87
40708;BME280;26392;42.696;23.350;2023-03-21T14:16:13;94784.13;;;18.70;41.46
40708;BME280;26392;42.696;23.350;2023-03-21T14:18:50;94789.59;;;18.62;41.62
40708;BME280;26392;42.696;23.350;2023-03-21T14:21:22;94790.34;;;18.45;42.21
40708;BME280;26392;42.696;23.350;2023-03-21T14:23:55;94793.44;;;18.43;41.63
40708;BME280;26392;42.696;23.350;2023-03-21T14:26:21;94775.53;;;18.32;41.44
40708;BME280;26392;42.696;23.350;2023-03-21T14:28:48;94782.53;;;18.07;42.16
40708;BME280;26392;42.696;23.350;2023-03-21T14:31:17;94779.66;;;18.12;42.22
40708;BME280;26392;42.696;23.350;2023-03-21T14:33:50;94784.28;;;18.03;42.40
40708;BME280;26392;42.696;23.350;2023-03-21T14:36:24;94778.66;;;18.08;42.48
40708;BME280;26392;42.696;23.350;2023-03-21T14:39:16;94779.66;;;17.89;42.91
40708;BME280;26392;42.696;23.350;2023-03-21T14:41:48;94782.34;;;17.81;42.94
40708;BME280;26392;42.696;23.350;2023-03-21T14:44:22;94776.53;;;17.82;43.35
40708;BME280;26392;42.696;23.350;2023-03-21T14:47:22;94783.66;;;17.61;44.22
40708;BME280;26392;42.696;23.350;2023-03-21T14:49:48;94776.97;;;17.53;44.59
40708;BME280;26392;42.696;23.350;2023-03-21T14:52:30;94779.50;;;17.50;44.91